sensor_id;sensor_type;location;lat;lon;timestamp;P1;durP1;ratioP1;P2;durP2;ratioP2
7203;SDS011;3643;52.460;13.322;2022-12-20T00:01:57;101.33;;;26.53;;
7203;SDS011;3643;52.460;13.322;2022-12-20T00:04:33;105.13;;;26.63;;
7203;SDS011;3643;52.460;13.322;2022-12-20T00:07:05;92.83;;;24.33;;
7203;SDS011;3643;52.460;13.322;2022-12-20T00:09:34;78.17;;;24.17;;
7203;SDS011;3643;52.460;13.322;2022-12-20T00:12:02;92.70;;;25.27;;
7203;SDS011;3643;52.460;13.322;2022-12-20T00:14:31;93.00;;;24.63;;
7203;SDS011;3643;52.460;13.322;2022-12-20T00:17:00;84.10;;;24.67;;
7203;SDS011;3643;52.460;13.322;2022-12-20T00:19:28;86.47;;;23.80;;
7203;SDS011;3643;52.460;13.322;2022-12-20T00:21:57;83.23;;;24.53;;
7203;SDS011;3643;52.460;13.322;2022-12-20T00:24:27;76.13;;;24.23;;
7203;SDS011;3643;52.460;13.322;2022-12-20T00:26:55;67.47;;;22.77;;
7203;SDS011;3643;52.460;13.322;2022-12-20T00:29:24;77.37;;;23.73;;
7203;SDS011;3643;52.460;13.322;2022-12-20T00:31:52;77.33;;;24.57;;
7203;SDS011;3643;52.460;13.322;2022-12-20T00:34:21;76.20;;;22.87;;
7203;SDS011;3643;52.460;13.322;2022-12-20T00:36:49;65.90;;;23.33;;
7203;SDS011;3643;52.460;13.322;2022-12-20T00:39:17;68.27;;;23.00;;
7203;SDS011;3643;52.460;13.322;2022-12-20T00:41:48;71.57;;;23.63;;
7203;SDS011;3643;52.460;13.322;2022-12-20T00:44:16;81.53;;;23.73;;
7203;SDS011;3643;52.460;13.322;2022-12-20T00:46:47;69.83;;;23.10;;
7203;SDS011;3643;52.460;13.322;2022-12-20T00:49:16;74.77;;;24.13;;
7203;SDS011;3643;52.460;13.322;2022-12-20T00:51:45;83.77;;;23.40;;
7203;SDS011;3643;52.460;13.322;2022-12-20T00:54:13;63.43;;;21.63;;
7203;SDS011;3643;52.460;13.322;2022-12-20T00:59:19;77.97;;;23.60;;
7203;SDS011;3643;52.460;13.322;2022-12-20T01:01:47;64.20;;;21.43;;
7203;SDS011;3643;52.460;13.322;2022-12-20T01:04:16;65.60;;;23.10;;
7203;SDS011;3643;52.460;13.322;2022-12-20T01:06:44;64.57;;;21.40;;
7203;SDS011;3643;52.460;13.322;2022-12-20T01:09:13;63.70;;;22.43;;
7203;SDS011;3643;52.460;13.322;2022-12-20T01:11:41;67.33;;;22.90;;
7203;SDS011;3643;52.460;13.322;2022-12-20T01:14:12;60.37;;;20.97;;
7203;SDS011;3643;52.460;13.322;2022-12-20T01:16:42;64.73;;;23.73;;
7203;SDS011;3643;52.460;13.322;2022-12-20T01:19:13;59.17;;;21.43;;
7203;SDS011;3643;52.460;13.322;2022-12-20T01:21:43;70.60;;;22.73;;
7203;SDS011;3643;52.460;13.322;2022-12-20T01:24:11;57.67;;;21.30;;
7203;SDS011;3643;52.460;13.322;2022-12-20T01:26:41;64.67;;;22.33;;
7203;SDS011;3643;52.460;13.322;2022-12-20T01:29:09;59.57;;;22.03;;
7203;SDS011;3643;52.460;13.322;2022-12-20T01:31:40;51.60;;;21.70;;
7203;SDS011;3643;52.460;13.322;2022-12-20T01:34:10;52.87;;;21.97;;
7203;SDS011;3643;52.460;13.322;2022-12-20T01:36:45;53.67;;;20.90;;
7203;SDS011;3643;52.460;13.322;2022-12-20T01:39:16;46.80;;;19.87;;
7203;SDS011;3643;52.460;13.322;2022-12-20T01:41:44;41.93;;;19.77;;
7203;SDS011;3643;52.460;13.322;2022-12-20T01:47:32;45.27;;;18.97;;
7203;SDS011;3643;52.460;13.322;2022-12-20T01:50:04;40.60;;;18.03;;
7203;SDS011;3643;52.460;13.322;2022-12-20T01:52:35;39.13;;;18.17;;
7203;SDS011;3643;52.460;13.322;2022-12-20T01:55:06;42.50;;;17.43;;
7203;SDS011;3643;52.460;13.322;2022-12-20T01:57:41;38.77;;;19.27;;
7203;SDS011;3643;52.460;13.322;2022-12-20T02:00:14;42.00;;;18.70;;
7203;SDS011;3643;52.460;13.322;2022-12-20T02:02:45;38.10;;;18.53;;
7203;SDS011;3643;52.460;13.322;2022-12-20T02:05:17;40.20;;;17.43;;
7203;SDS011;3643;52.460;13.322;2022-12-20T02:07:52;41.03;;;18.23;;
7203;SDS011;3643;52.460;13.322;2022-12-20T02:10:23;36.70;;;16.77;;
7203;SDS011;3643;52.460;13.322;2022-12-20T02:13:02;37.23;;;17.33;;
7203;SDS011;3643;52.460;13.322;2022-12-20T02:15:40;37.53;;;16.57;;
7203;SDS011;3643;52.460;13.322;2022-12-20T02:18:19;35.63;;;17.50;;
7203;SDS011;3643;52.460;13.322;2022-12-20T02:30:01;33.43;;;16.27;;
7203;SDS011;3643;52.460;13.322;2022-12-20T02:32:36;32.40;;;16.33;;
7203;SDS011;3643;52.460;13.322;2022-12-20T02:35:10;34.53;;;15.70;;
7203;SDS011;3643;52.460;13.322;2022-12-20T02:37:48;31.83;;;15.63;;
7203;SDS011;3643;52.460;13.322;2022-12-20T02:40:18;31.43;;;15.30;;
7203;SDS011;3643;52.460;13.322;2022-12-20T02:42:51;27.10;;;13.63;;
7203;SDS011;3643;52.460;13.322;2022-12-20T02:45:26;29.33;;;14.63;;
7203;SDS011;3643;52.460;13.322;2022-12-20T02:48:00;24.90;;;13.43;;
7203;SDS011;3643;52.460;13.322;2022-12-20T02:50:36;24.67;;;12.87;;
7203;SDS011;3643;52.460;13.322;2022-12-20T02:53:07;26.10;;;13.80;;
7203;SDS011;3643;52.460;13.322;2022-12-20T02:55:38;21.53;;;11.97;;
7203;SDS011;3643;52.460;13.322;2022-12-20T02:58:13;22.00;;;12.37;;
7203;SDS011;3643;52.460;13.322;2022-12-20T03:00:49;21.00;;;11.37;;
7203;SDS011;3643;52.460;13.322;2022-12-20T03:03:19;17.50;;;11.27;;
7203;SDS011;3643;52.460;13.322;2022-12-20T03:05:53;20.93;;;11.47;;
7203;SDS011;3643;52.460;13.322;2022-12-20T03:08:22;19.03;;;10.83;;
7203;SDS011;3643;52.460;13.322;2022-12-20T03:10:52;17.97;;;10.70;;
7203;SDS011;3643;52.460;13.322;2022-12-20T03:13:21;19.33;;;11.03;;
7203;SDS011;3643;52.460;13.322;2022-12-20T03:15:53;17.13;;;10.47;;
7203;SDS011;3643;52.460;13.322;2022-12-20T03:18:22;18.87;;;11.03;;
7203;SDS011;3643;52.460;13.322;2022-12-20T03:20:50;18.33;;;11.07;;
7203;SDS011;3643;52.460;13.322;2022-12-20T03:23:19;18.17;;;10.80;;
7203;SDS011;3643;52.460;13.322;2022-12-20T03:25:48;16.97;;;10.30;;
7203;SDS011;3643;52.460;13.322;2022-12-20T03:28:16;18.97;;;10.87;;
7203;SDS011;3643;52.460;13.322;2022-12-20T03:30:46;20.37;;;10.53;;
7203;SDS011;3643;52.460;13.322;2022-12-20T03:33:17;18.67;;;10.63;;
7203;SDS011;3643;52.460;13.322;2022-12-20T03:35:45;19.77;;;11.03;;
7203;SDS011;3643;52.460;13.322;2022-12-20T03:38:15;18.40;;;10.10;;
7203;SDS011;3643;52.460;13.322;2022-12-20T03:40:43;15.80;;;9.67;;
7203;SDS011;3643;52.460;13.322;2022-12-20T03:43:12;16.20;;;10.67;;
7203;SDS011;3643;52.460;13.322;2022-12-20T03:45:40;18.80;;;10.37;;
7203;SDS011;3643;52.460;13.322;2022-12-20T03:48:09;20.70;;;11.33;;
7203;SDS011;3643;52.460;13.322;2022-12-20T03:50:38;16.40;;;9.90;;
7203;SDS011;3643;52.460;13.322;2022-12-20T03:53:07;16.70;;;10.63;;
7203;SDS011;3643;52.460;13.322;2022-12-20T03:55:36;18.93;;;10.50;;
7203;SDS011;3643;52.460;13.322;2022-12-20T03:58:09;14.67;;;10.17;;
7203;SDS011;3643;52.460;13.322;2022-12-20T04:00:38;18.23;;;10.20;;
7203;SDS011;3643;52.460;13.322;2022-12-20T04:03:06;18.00;;;9.90;;
7203;SDS011;3643;52.460;13.322;2022-12-20T04:05:35;18.77;;;10.73;;
7203;SDS011;3643;52.460;13.322;2022-12-20T04:08:05;18.33;;;10.00;;
7203;SDS011;3643;52.460;13.322;2022-12-20T04:10:34;17.60;;;10.33;;
7203;SDS011;3643;52.460;13.322;2022-12-20T04:13:22;17.30;;;10.17;;
7203;SDS011;3643;52.460;13.322;2022-12-20T04:15:51;16.83;;;9.90;;
7203;SDS011;3643;52.460;13.322;2022-12-20T04:18:26;16.40;;;10.00;;
7203;SDS011;3643;52.460;13.322;2022-12-20T04:20:55;18.57;;;9.73;;
7203;SDS011;3643;52.460;13.322;2022-12-20T04:23:27;18.07;;;9.70;;
7203;SDS011;3643;52.460;13.322;2022-12-20T04:25:56;18.33;;;10.87;;
7203;SDS011;3643;52.460;13.322;2022-12-20T04:28:26;20.17;;;10.43;;
7203;SDS011;3643;52.460;13.322;2022-12-20T04:30:54;16.87;;;9.97;;
7203;SDS011;3643;52.460;13.322;2022-12-20T04:33:23;15.67;;;9.63;;
7203;SDS011;3643;52.460;13.322;2022-12-20T04:35:55;18.27;;;10.70;;
7203;SDS011;3643;52.460;13.322;2022-12-20T04:38:24;17.97;;;9.93;;
7203;SDS011;3643;52.460;13.322;2022-12-20T04:40:55;18.93;;;9.83;;
7203;SDS011;3643;52.460;13.322;2022-12-20T04:43:23;15.50;;;9.70;;
7203;SDS011;3643;52.460;13.322;2022-12-20T04:45:54;16.97;;;9.87;;
7203;SDS011;3643;52.460;13.322;2022-12-20T04:48:23;18.13;;;10.43;;
7203;SDS011;3643;52.460;13.322;2022-12-20T04:51:14;18.13;;;9.80;;
7203;SDS011;3643;52.460;13.322;2022-12-20T04:53:44;21.10;;;11.60;;
7203;SDS011;3643;52.460;13.322;2022-12-20T04:56:17;17.60;;;10.50;;
7203;SDS011;3643;52.460;13.322;2022-12-20T04:58:49;19.63;;;10.57;;
7203;SDS011;3643;52.460;13.322;2022-12-20T05:01:18;19.90;;;10.17;;
7203;SDS011;3643;52.460;13.322;2022-12-20T05:03:47;19.87;;;11.13;;
7203;SDS011;3643;52.460;13.322;2022-12-20T05:06:17;20.57;;;10.63;;
7203;SDS011;3643;52.460;13.322;2022-12-20T05:08:46;16.97;;;10.27;;
7203;SDS011;3643;52.460;13.322;2022-12-20T05:11:14;18.13;;;10.00;;
7203;SDS011;3643;52.460;13.322;2022-12-20T05:13:44;21.57;;;11.37;;
7203;SDS011;3643;52.460;13.322;2022-12-20T05:16:12;17.60;;;10.10;;
7203;SDS011;3643;52.460;13.322;2022-12-20T05:18:41;17.00;;;10.03;;
7203;SDS011;3643;52.460;13.322;2022-12-20T05:21:14;17.20;;;10.37;;
7203;SDS011;3643;52.460;13.322;2022-12-20T05:24:00;18.63;;;11.27;;
7203;SDS011;3643;52.460;13.322;2022-12-20T05:26:48;17.37;;;10.80;;
7203;SDS011;3643;52.460;13.322;2022-12-20T05:29:22;16.97;;;10.50;;
7203;SDS011;3643;52.460;13.322;2022-12-20T05:31:50;18.17;;;10.63;;
7203;SDS011;3643;52.460;13.322;2022-12-20T05:34:19;19.43;;;11.00;;
7203;SDS011;3643;52.460;13.322;2022-12-20T05:36:47;17.00;;;9.90;;
7203;SDS011;3643;52.460;13.322;2022-12-20T05:39:15;15.27;;;10.20;;
7203;SDS011;3643;52.460;13.322;2022-12-20T05:41:44;17.13;;;10.33;;
7203;SDS011;3643;52.460;13.322;2022-12-20T05:44:14;18.03;;;10.13;;
7203;SDS011;3643;52.460;13.322;2022-12-20T05:46:42;17.87;;;9.97;;
7203;SDS011;3643;52.460;13.322;2022-12-20T05:49:10;18.37;;;10.60;;
7203;SDS011;3643;52.460;13.322;2022-12-20T05:51:39;18.67;;;10.37;;
7203;SDS011;3643;52.460;13.322;2022-12-20T05:54:07;18.57;;;10.63;;
7203;SDS011;3643;52.460;13.322;2022-12-20T05:56:36;17.60;;;10.10;;
7203;SDS011;3643;52.460;13.322;2022-12-20T05:59:09;16.80;;;10.60;;
7203;SDS011;3643;52.460;13.322;2022-12-20T06:01:39;18.50;;;11.20;;
7203;SDS011;3643;52.460;13.322;2022-12-20T06:04:09;22.90;;;11.50;;
7203;SDS011;3643;52.460;13.322;2022-12-20T06:06:38;18.17;;;10.93;;
7203;SDS011;3643;52.460;13.322;2022-12-20T06:09:06;18.77;;;10.50;;
7203;SDS011;3643;52.460;13.322;2022-12-20T06:11:34;16.90;;;10.23;;
7203;SDS011;3643;52.460;13.322;2022-12-20T06:14:02;17.87;;;10.50;;
7203;SDS011;3643;52.460;13.322;2022-12-20T06:16:30;17.87;;;10.77;;
7203;SDS011;3643;52.460;13.322;2022-12-20T06:19:00;17.23;;;10.97;;
7203;SDS011;3643;52.460;13.322;2022-12-20T06:21:28;19.50;;;10.07;;
7203;SDS011;3643;52.460;13.322;2022-12-20T06:23:57;18.40;;;10.73;;
7203;SDS011;3643;52.460;13.322;2022-12-20T06:26:27;20.80;;;10.83;;
7203;SDS011;3643;52.460;13.322;2022-12-20T06:29:01;16.23;;;10.57;;
7203;SDS011;3643;52.460;13.322;2022-12-20T06:31:32;17.23;;;10.50;;
7203;SDS011;3643;52.460;13.322;2022-12-20T06:34:03;17.87;;;10.90;;
7203;SDS011;3643;52.460;13.322;2022-12-20T06:36:31;21.10;;;11.70;;
7203;SDS011;3643;52.460;13.322;2022-12-20T06:39:00;17.30;;;11.23;;
7203;SDS011;3643;52.460;13.322;2022-12-20T06:41:36;20.27;;;11.27;;
7203;SDS011;3643;52.460;13.322;2022-12-20T06:44:05;18.00;;;10.60;;
7203;SDS011;3643;52.460;13.322;2022-12-20T06:46:33;22.67;;;11.93;;
7203;SDS011;3643;52.460;13.322;2022-12-20T06:49:03;21.07;;;11.60;;
7203;SDS011;3643;52.460;13.322;2022-12-20T06:51:31;19.63;;;11.40;;
7203;SDS011;3643;52.460;13.322;2022-12-20T06:54:00;20.20;;;12.10;;
7203;SDS011;3643;52.460;13.322;2022-12-20T06:56:28;17.77;;;11.37;;
7203;SDS011;3643;52.460;13.322;2022-12-20T06:59:05;19.73;;;11.50;;
7203;SDS011;3643;52.460;13.322;2022-12-20T07:01:33;20.23;;;12.13;;
7203;SDS011;3643;52.460;13.322;2022-12-20T07:04:03;21.17;;;12.87;;
7203;SDS011;3643;52.460;13.322;2022-12-20T07:06:32;22.33;;;12.77;;
7203;SDS011;3643;52.460;13.322;2022-12-20T07:09:00;23.33;;;13.30;;
7203;SDS011;3643;52.460;13.322;2022-12-20T07:11:29;24.43;;;14.07;;
7203;SDS011;3643;52.460;13.322;2022-12-20T07:13:58;19.63;;;11.93;;
7203;SDS011;3643;52.460;13.322;2022-12-20T07:16:28;22.67;;;12.20;;
7203;SDS011;3643;52.460;13.322;2022-12-20T07:18:57;20.20;;;13.37;;
7203;SDS011;3643;52.460;13.322;2022-12-20T07:21:29;20.90;;;12.17;;
7203;SDS011;3643;52.460;13.322;2022-12-20T07:23:57;21.53;;;12.20;;
7203;SDS011;3643;52.460;13.322;2022-12-20T07:26:26;20.40;;;11.90;;
7203;SDS011;3643;52.460;13.322;2022-12-20T07:28:54;19.77;;;11.60;;
7203;SDS011;3643;52.460;13.322;2022-12-20T07:31:22;22.97;;;12.30;;
7203;SDS011;3643;52.460;13.322;2022-12-20T07:33:51;19.90;;;12.20;;
7203;SDS011;3643;52.460;13.322;2022-12-20T07:36:20;23.57;;;12.83;;
7203;SDS011;3643;52.460;13.322;2022-12-20T07:38:51;24.23;;;12.83;;
7203;SDS011;3643;52.460;13.322;2022-12-20T07:41:21;21.50;;;12.43;;
7203;SDS011;3643;52.460;13.322;2022-12-20T07:43:50;23.00;;;13.37;;
7203;SDS011;3643;52.460;13.322;2022-12-20T07:46:20;22.60;;;13.53;;
7203;SDS011;3643;52.460;13.322;2022-12-20T07:48:50;23.83;;;13.83;;
7203;SDS011;3643;52.460;13.322;2022-12-20T07:51:19;23.87;;;13.03;;
7203;SDS011;3643;52.460;13.322;2022-12-20T07:53:53;22.23;;;12.40;;
7203;SDS011;3643;52.460;13.322;2022-12-20T07:56:26;26.50;;;14.07;;
7203;SDS011;3643;52.460;13.322;2022-12-20T07:59:02;25.33;;;13.70;;
7203;SDS011;3643;52.460;13.322;2022-12-20T08:01:31;20.47;;;12.27;;
7203;SDS011;3643;52.460;13.322;2022-12-20T08:04:01;25.90;;;15.13;;
7203;SDS011;3643;52.460;13.322;2022-12-20T08:06:35;23.10;;;13.57;;
7203;SDS011;3643;52.460;13.322;2022-12-20T08:09:07;22.37;;;14.30;;
7203;SDS011;3643;52.460;13.322;2022-12-20T08:11:38;25.67;;;13.80;;
7203;SDS011;3643;52.460;13.322;2022-12-20T08:14:09;25.70;;;14.73;;
7203;SDS011;3643;52.460;13.322;2022-12-20T08:16:38;27.30;;;15.63;;
7203;SDS011;3643;52.460;13.322;2022-12-20T08:19:07;25.53;;;14.13;;
7203;SDS011;3643;52.460;13.322;2022-12-20T08:21:36;28.73;;;14.83;;
7203;SDS011;3643;52.460;13.322;2022-12-20T08:24:04;28.53;;;16.50;;
7203;SDS011;3643;52.460;13.322;2022-12-20T08:26:36;24.57;;;14.13;;
7203;SDS011;3643;52.460;13.322;2022-12-20T08:29:07;25.00;;;14.70;;
7203;SDS011;3643;52.460;13.322;2022-12-20T08:31:36;26.03;;;14.53;;
7203;SDS011;3643;52.460;13.322;2022-12-20T08:34:14;25.17;;;13.90;;
7203;SDS011;3643;52.460;13.322;2022-12-20T08:36:43;24.27;;;14.03;;
7203;SDS011;3643;52.460;13.322;2022-12-20T08:39:15;27.73;;;14.63;;
7203;SDS011;3643;52.460;13.322;2022-12-20T08:41:43;25.33;;;14.70;;
7203;SDS011;3643;52.460;13.322;2022-12-20T08:44:12;27.20;;;15.67;;
7203;SDS011;3643;52.460;13.322;2022-12-20T08:46:40;25.83;;;14.63;;
7203;SDS011;3643;52.460;13.322;2022-12-20T08:49:09;24.83;;;14.00;;
7203;SDS011;3643;52.460;13.322;2022-12-20T08:51:39;43.53;;;22.70;;
7203;SDS011;3643;52.460;13.322;2022-12-20T08:54:08;29.70;;;18.57;;
7203;SDS011;3643;52.460;13.322;2022-12-20T08:56:44;25.73;;;15.30;;
7203;SDS011;3643;52.460;13.322;2022-12-20T08:59:14;31.87;;;17.00;;
7203;SDS011;3643;52.460;13.322;2022-12-20T09:01:43;28.07;;;17.17;;
7203;SDS011;3643;52.460;13.322;2022-12-20T09:04:11;31.37;;;17.20;;
7203;SDS011;3643;52.460;13.322;2022-12-20T09:06:40;29.57;;;15.07;;
7203;SDS011;3643;52.460;13.322;2022-12-20T09:09:09;30.00;;;16.53;;
7203;SDS011;3643;52.460;13.322;2022-12-20T09:11:37;28.10;;;16.03;;
7203;SDS011;3643;52.460;13.322;2022-12-20T09:14:09;28.07;;;16.33;;
7203;SDS011;3643;52.460;13.322;2022-12-20T09:16:37;29.70;;;16.03;;
7203;SDS011;3643;52.460;13.322;2022-12-20T09:19:09;26.83;;;15.10;;
7203;SDS011;3643;52.460;13.322;2022-12-20T09:21:39;25.80;;;14.50;;
7203;SDS011;3643;52.460;13.322;2022-12-20T09:24:08;26.80;;;15.50;;
7203;SDS011;3643;52.460;13.322;2022-12-20T09:26:36;30.83;;;16.50;;
7203;SDS011;3643;52.460;13.322;2022-12-20T09:29:08;23.83;;;14.27;;
7203;SDS011;3643;52.460;13.322;2022-12-20T09:31:37;29.93;;;15.70;;
7203;SDS011;3643;52.460;13.322;2022-12-20T09:34:07;24.50;;;14.07;;
7203;SDS011;3643;52.460;13.322;2022-12-20T09:36:36;26.87;;;14.77;;
7203;SDS011;3643;52.460;13.322;2022-12-20T09:41:48;20.30;;;12.43;;
7203;SDS011;3643;52.460;13.322;2022-12-20T09:44:18;21.07;;;11.97;;
7203;SDS011;3643;52.460;13.322;2022-12-20T09:46:53;18.53;;;11.70;;
7203;SDS011;3643;52.460;13.322;2022-12-20T09:49:33;19.87;;;11.03;;
7203;SDS011;3643;52.460;13.322;2022-12-20T09:52:14;19.43;;;10.90;;
7203;SDS011;3643;52.460;13.322;2022-12-20T09:55:01;16.83;;;10.60;;
7203;SDS011;3643;52.460;13.322;2022-12-20T09:57:44;16.37;;;10.83;;
7203;SDS011;3643;52.460;13.322;2022-12-20T10:00:25;17.10;;;10.67;;
7203;SDS011;3643;52.460;13.322;2022-12-20T10:02:55;17.53;;;9.87;;
7203;SDS011;3643;52.460;13.322;2022-12-20T10:05:38;17.37;;;10.27;;
7203;SDS011;3643;52.460;13.322;2022-12-20T10:08:21;16.50;;;10.73;;
7203;SDS011;3643;52.460;13.322;2022-12-20T10:10:57;18.97;;;11.13;;
7203;SDS011;3643;52.460;13.322;2022-12-20T10:13:38;18.00;;;10.17;;
7203;SDS011;3643;52.460;13.322;2022-12-20T10:16:25;17.70;;;10.57;;
7203;SDS011;3643;52.460;13.322;2022-12-20T10:19:03;15.93;;;10.13;;
7203;SDS011;3643;52.460;13.322;2022-12-20T10:24:26;17.87;;;10.40;;
7203;SDS011;3643;52.460;13.322;2022-12-20T10:26:57;29.83;;;18.07;;
7203;SDS011;3643;52.460;13.322;2022-12-20T10:29:33;37.97;;;22.67;;
7203;SDS011;3643;52.460;13.322;2022-12-20T10:32:09;50.30;;;29.90;;
7203;SDS011;3643;52.460;13.322;2022-12-20T10:34:42;16.43;;;10.43;;
7203;SDS011;3643;52.460;13.322;2022-12-20T10:37:17;14.70;;;10.10;;
7203;SDS011;3643;52.460;13.322;2022-12-20T10:39:47;16.40;;;9.63;;
7203;SDS011;3643;52.460;13.322;2022-12-20T10:42:29;14.87;;;9.27;;
7203;SDS011;3643;52.460;13.322;2022-12-20T10:45:05;18.07;;;10.93;;
7203;SDS011;3643;52.460;13.322;2022-12-20T10:48:03;15.07;;;9.70;;
7203;SDS011;3643;52.460;13.322;2022-12-20T10:50:33;15.07;;;9.57;;
7203;SDS011;3643;52.460;13.322;2022-12-20T10:53:03;13.83;;;9.27;;
7203;SDS011;3643;52.460;13.322;2022-12-20T10:55:47;14.40;;;9.20;;
7203;SDS011;3643;52.460;13.322;2022-12-20T10:58:16;16.73;;;9.87;;
7203;SDS011;3643;52.460;13.322;2022-12-20T11:01:02;16.37;;;10.17;;
7203;SDS011;3643;52.460;13.322;2022-12-20T11:03:35;17.47;;;9.67;;
7203;SDS011;3643;52.460;13.322;2022-12-20T11:06:18;16.63;;;10.03;;
7203;SDS011;3643;52.460;13.322;2022-12-20T11:08:48;17.83;;;10.37;;
7203;SDS011;3643;52.460;13.322;2022-12-20T11:11:25;16.73;;;9.77;;
7203;SDS011;3643;52.460;13.322;2022-12-20T11:13:55;14.60;;;9.07;;
7203;SDS011;3643;52.460;13.322;2022-12-20T11:16:40;15.23;;;9.30;;
7203;SDS011;3643;52.460;13.322;2022-12-20T11:19:19;15.03;;;9.97;;
7203;SDS011;3643;52.460;13.322;2022-12-20T11:22:12;18.87;;;9.40;;
7203;SDS011;3643;52.460;13.322;2022-12-20T11:24:51;16.60;;;9.83;;
7203;SDS011;3643;52.460;13.322;2022-12-20T11:27:31;15.57;;;9.40;;
7203;SDS011;3643;52.460;13.322;2022-12-20T11:30:08;17.57;;;10.80;;
7203;SDS011;3643;52.460;13.322;2022-12-20T11:32:54;18.90;;;10.43;;
7203;SDS011;3643;52.460;13.322;2022-12-20T11:35:47;14.57;;;9.33;;
7203;SDS011;3643;52.460;13.322;2022-12-20T11:38:24;16.80;;;10.03;;
7203;SDS011;3643;52.460;13.322;2022-12-20T11:41:10;16.57;;;9.40;;
7203;SDS011;3643;52.460;13.322;2022-12-20T11:43:51;14.30;;;9.13;;
7203;SDS011;3643;52.460;13.322;2022-12-20T11:46:57;15.30;;;9.43;;
7203;SDS011;3643;52.460;13.322;2022-12-20T11:55:19;18.03;;;9.00;;
7203;SDS011;3643;52.460;13.322;2022-12-20T11:57:55;14.13;;;8.70;;
7203;SDS011;3643;52.460;13.322;2022-12-20T12:00:45;15.53;;;9.70;;
7203;SDS011;3643;52.460;13.322;2022-12-20T12:03:21;17.10;;;10.00;;
7203;SDS011;3643;52.460;13.322;2022-12-20T12:05:58;15.10;;;9.13;;
7203;SDS011;3643;52.460;13.322;2022-12-20T12:08:38;14.43;;;8.37;;
7203;SDS011;3643;52.460;13.322;2022-12-20T12:11:13;14.23;;;8.97;;
7203;SDS011;3643;52.460;13.322;2022-12-20T12:14:05;15.73;;;9.13;;
7203;SDS011;3643;52.460;13.322;2022-12-20T12:16:43;15.87;;;8.60;;
7203;SDS011;3643;52.460;13.322;2022-12-20T12:19:18;13.03;;;8.93;;
7203;SDS011;3643;52.460;13.322;2022-12-20T12:21:48;15.27;;;8.80;;
7203;SDS011;3643;52.460;13.322;2022-12-20T12:24:22;15.27;;;9.27;;
7203;SDS011;3643;52.460;13.322;2022-12-20T12:26:58;16.40;;;9.37;;
7203;SDS011;3643;52.460;13.322;2022-12-20T12:29:27;13.93;;;8.97;;
7203;SDS011;3643;52.460;13.322;2022-12-20T12:31:59;14.63;;;9.23;;
7203;SDS011;3643;52.460;13.322;2022-12-20T12:34:38;13.40;;;9.03;;
7203;SDS011;3643;52.460;13.322;2022-12-20T12:37:22;14.97;;;8.97;;
7203;SDS011;3643;52.460;13.322;2022-12-20T12:40:11;13.77;;;8.97;;
7203;SDS011;3643;52.460;13.322;2022-12-20T12:43:11;15.27;;;8.93;;
7203;SDS011;3643;52.460;13.322;2022-12-20T12:46:10;15.63;;;9.30;;
7203;SDS011;3643;52.460;13.322;2022-12-20T12:48:41;13.57;;;8.57;;
7203;SDS011;3643;52.460;13.322;2022-12-20T12:51:13;14.77;;;9.10;;
7203;SDS011;3643;52.460;13.322;2022-12-20T12:53:49;13.73;;;9.00;;
7203;SDS011;3643;52.460;13.322;2022-12-20T12:56:36;14.70;;;9.67;;
7203;SDS011;3643;52.460;13.322;2022-12-20T12:59:38;14.67;;;9.57;;
7203;SDS011;3643;52.460;13.322;2022-12-20T13:07:57;18.50;;;10.30;;
7203;SDS011;3643;52.460;13.322;2022-12-20T13:13:25;16.00;;;10.37;;
7203;SDS011;3643;52.460;13.322;2022-12-20T13:16:10;15.70;;;10.13;;
7203;SDS011;3643;52.460;13.322;2022-12-20T13:19:14;18.40;;;10.37;;
7203;SDS011;3643;52.460;13.322;2022-12-20T13:21:44;16.97;;;9.87;;
7203;SDS011;3643;52.460;13.322;2022-12-20T13:27:21;17.17;;;10.07;;
7203;SDS011;3643;52.460;13.322;2022-12-20T13:29:57;16.73;;;10.10;;
7203;SDS011;3643;52.460;13.322;2022-12-20T13:32:55;16.90;;;10.10;;
7203;SDS011;3643;52.460;13.322;2022-12-20T13:39:06;14.87;;;10.50;;
7203;SDS011;3643;52.460;13.322;2022-12-20T13:42:07;16.90;;;9.63;;
7203;SDS011;3643;52.460;13.322;2022-12-20T13:44:44;18.67;;;10.17;;
7203;SDS011;3643;52.460;13.322;2022-12-20T13:50:22;17.07;;;10.47;;
7203;SDS011;3643;52.460;13.322;2022-12-20T13:52:58;18.60;;;10.20;;
7203;SDS011;3643;52.460;13.322;2022-12-20T13:55:31;17.70;;;10.53;;
7203;SDS011;3643;52.460;13.322;2022-12-20T13:58:05;20.57;;;10.80;;
7203;SDS011;3643;52.460;13.322;2022-12-20T14:00:38;17.53;;;10.10;;
7203;SDS011;3643;52.460;13.322;2022-12-20T14:03:12;16.13;;;9.87;;
7203;SDS011;3643;52.460;13.322;2022-12-20T14:05:47;18.80;;;10.27;;
7203;SDS011;3643;52.460;13.322;2022-12-20T14:08:19;16.30;;;9.80;;
7203;SDS011;3643;52.460;13.322;2022-12-20T14:10:50;15.60;;;9.80;;
7203;SDS011;3643;52.460;13.322;2022-12-20T14:13:20;19.27;;;10.83;;
7203;SDS011;3643;52.460;13.322;2022-12-20T14:15:50;18.70;;;10.00;;
7203;SDS011;3643;52.460;13.322;2022-12-20T14:18:21;16.27;;;9.67;;
7203;SDS011;3643;52.460;13.322;2022-12-20T14:20:52;16.37;;;8.97;;
7203;SDS011;3643;52.460;13.322;2022-12-20T14:23:22;15.47;;;9.27;;
7203;SDS011;3643;52.460;13.322;2022-12-20T14:25:54;15.20;;;9.57;;
7203;SDS011;3643;52.460;13.322;2022-12-20T14:28:28;15.00;;;9.97;;
7203;SDS011;3643;52.460;13.322;2022-12-20T14:31:21;17.70;;;10.50;;
7203;SDS011;3643;52.460;13.322;2022-12-20T14:33:59;16.47;;;9.60;;
7203;SDS011;3643;52.460;13.322;2022-12-20T14:36:30;14.90;;;10.00;;
7203;SDS011;3643;52.460;13.322;2022-12-20T14:38:59;16.50;;;10.70;;
7203;SDS011;3643;52.460;13.322;2022-12-20T14:41:29;18.97;;;11.20;;
7203;SDS011;3643;52.460;13.322;2022-12-20T14:44:02;20.03;;;11.53;;
7203;SDS011;3643;52.460;13.322;2022-12-20T14:46:41;19.73;;;11.03;;
7203;SDS011;3643;52.460;13.322;2022-12-20T14:49:16;19.40;;;10.83;;
7203;SDS011;3643;52.460;13.322;2022-12-20T14:51:50;18.40;;;11.57;;
7203;SDS011;3643;52.460;13.322;2022-12-20T14:54:20;19.53;;;11.20;;
7203;SDS011;3643;52.460;13.322;2022-12-20T14:57:19;21.03;;;11.77;;
7203;SDS011;3643;52.460;13.322;2022-12-20T14:59:59;18.50;;;11.50;;
7203;SDS011;3643;52.460;13.322;2022-12-20T15:02:34;21.67;;;12.23;;
7203;SDS011;3643;52.460;13.322;2022-12-20T15:05:07;20.73;;;11.77;;
7203;SDS011;3643;52.460;13.322;2022-12-20T15:08:09;24.40;;;13.30;;
7203;SDS011;3643;52.460;13.322;2022-12-20T15:10:46;21.43;;;12.37;;
7203;SDS011;3643;52.460;13.322;2022-12-20T15:13:27;24.27;;;12.83;;
7203;SDS011;3643;52.460;13.322;2022-12-20T15:15:59;22.03;;;13.30;;
7203;SDS011;3643;52.460;13.322;2022-12-20T15:18:30;22.87;;;13.23;;
7203;SDS011;3643;52.460;13.322;2022-12-20T15:21:02;21.87;;;13.07;;
7203;SDS011;3643;52.460;13.322;2022-12-20T15:23:34;24.30;;;13.20;;
7203;SDS011;3643;52.460;13.322;2022-12-20T15:26:03;25.83;;;14.20;;
7203;SDS011;3643;52.460;13.322;2022-12-20T15:28:32;24.23;;;13.30;;
7203;SDS011;3643;52.460;13.322;2022-12-20T15:31:00;26.63;;;14.80;;
7203;SDS011;3643;52.460;13.322;2022-12-20T15:33:30;24.73;;;14.20;;
7203;SDS011;3643;52.460;13.322;2022-12-20T15:36:01;26.00;;;14.33;;
7203;SDS011;3643;52.460;13.322;2022-12-20T15:38:30;27.27;;;14.67;;
7203;SDS011;3643;52.460;13.322;2022-12-20T15:41:20;23.23;;;13.87;;
7203;SDS011;3643;52.460;13.322;2022-12-20T15:43:51;24.20;;;13.80;;
7203;SDS011;3643;52.460;13.322;2022-12-20T15:46:23;27.53;;;15.10;;
7203;SDS011;3643;52.460;13.322;2022-12-20T15:48:59;26.80;;;14.13;;
7203;SDS011;3643;52.460;13.322;2022-12-20T15:51:29;25.97;;;14.07;;
7203;SDS011;3643;52.460;13.322;2022-12-20T15:53:59;26.30;;;14.57;;
7203;SDS011;3643;52.460;13.322;2022-12-20T15:59:07;30.10;;;14.73;;